createdAt,value
2023-07-25T00:01:33.895Z,10.18
2023-07-25T00:04:01.437Z,11.68
2023-07-25T00:06:30.282Z,12.02
2023-07-25T00:08:57.531Z,11.20
2023-07-25T00:11:25.088Z,11.10
2023-07-25T00:13:52.352Z,12.73
2023-07-25T00:16:19.818Z,11.30
2023-07-25T00:18:47.063Z,10.30
2023-07-25T00:21:14.612Z,11.63
2023-07-25T00:23:41.877Z,12.32
2023-07-25T00:26:09.355Z,12.00
2023-07-25T00:28:36.647Z,10.35
2023-07-25T00:31:08.555Z,15.20
2023-07-25T00:33:36.193Z,12.00
2023-07-25T00:36:03.856Z,11.10
2023-07-25T00:38:31.035Z,11.88
2023-07-25T00:40:58.701Z,11.98
2023-07-25T00:43:25.849Z,12.02
2023-07-25T00:45:53.387Z,11.95
2023-07-25T00:48:20.782Z,11.85
2023-07-25T00:50:48.325Z,10.90
2023-07-25T00:53:16.799Z,12.18
2023-07-25T00:55:44.590Z,14.05
2023-07-25T00:58:12.507Z,11.35
2023-07-25T01:00:40.546Z,13.20
2023-07-25T01:03:08.171Z,12.75
2023-07-25T01:05:41.082Z,10.85
2023-07-25T01:08:08.784Z,10.45
2023-07-25T01:10:39.856Z,9.60
2023-07-25T01:13:07.818Z,11.65
2023-07-25T01:15:37.314Z,12.73
2023-07-25T01:18:06.173Z,11.75
2023-07-25T01:20:36.379Z,13.63
2023-07-25T01:23:11.289Z,12.02
2023-07-25T01:25:38.845Z,12.32
2023-07-25T01:28:06.282Z,10.52
2023-07-25T01:30:33.877Z,10.25
2023-07-25T01:33:01.244Z,10.98
2023-07-25T01:35:28.816Z,10.45
2023-07-25T01:37:56.520Z,12.02
2023-07-25T01:40:24.135Z,11.70
2023-07-25T01:42:51.599Z,11.23
2023-07-25T01:45:19.400Z,14.88
2023-07-25T01:47:46.667Z,11.18
2023-07-25T01:50:14.397Z,11.65
2023-07-25T01:52:41.589Z,11.75
2023-07-25T01:55:09.849Z,10.85
2023-07-25T01:57:37.327Z,11.50
2023-07-25T02:00:05.362Z,11.98
2023-07-25T02:02:40.467Z,12.88
2023-07-25T02:05:08.224Z,15.38
2023-07-25T02:07:35.949Z,12.18
2023-07-25T02:10:03.813Z,18.17
2023-07-25T02:12:31.883Z,12.27
2023-07-25T02:14:59.410Z,11.10
2023-07-25T02:17:26.725Z,10.75
2023-07-25T02:19:54.530Z,15.27
2023-07-25T02:22:21.744Z,13.45
2023-07-25T02:24:50.276Z,11.80
2023-07-25T02:27:17.881Z,13.88
2023-07-25T02:29:45.638Z,12.68
2023-07-25T02:32:12.778Z,12.52
2023-07-25T02:34:40.360Z,14.68
2023-07-25T02:37:07.711Z,14.43
2023-07-25T02:39:35.771Z,12.85
2023-07-25T02:42:02.972Z,12.55
2023-07-25T02:44:30.444Z,18.45
2023-07-25T02:46:58.024Z,12.63
2023-07-25T02:49:25.492Z,13.88
2023-07-25T02:51:53.043Z,12.55
2023-07-25T02:54:20.663Z,12.75
2023-07-25T02:56:47.881Z,15.60
2023-07-25T02:59:15.851Z,14.40
2023-07-25T03:01:43.089Z,13.13
2023-07-25T03:04:10.702Z,12.15
2023-07-25T03:06:37.944Z,13.52
2023-07-25T03:09:05.479Z,15.63
2023-07-25T03:11:32.884Z,15.23
2023-07-25T03:14:00.768Z,14.32
2023-07-25T03:16:28.107Z,13.43
2023-07-25T03:18:55.620Z,13.38
2023-07-25T03:21:23.028Z,12.15
2023-07-25T03:23:51.508Z,14.35
2023-07-25T03:26:18.986Z,14.05
2023-07-25T03:28:46.774Z,14.90
2023-07-25T03:31:14.175Z,13.50
2023-07-25T03:33:42.332Z,13.82
2023-07-25T03:36:09.841Z,13.35
2023-07-25T03:38:37.278Z,15.10
2023-07-25T03:41:04.597Z,20.10
2023-07-25T03:43:32.096Z,13.98
2023-07-25T03:45:59.464Z,15.85
2023-07-25T03:48:27.069Z,16.50
2023-07-25T03:50:54.446Z,14.98
2023-07-25T03:53:22.317Z,12.85
2023-07-25T03:55:49.457Z,13.52
2023-07-25T03:58:17.221Z,14.48
2023-07-25T04:00:44.352Z,13.73
2023-07-25T04:03:15.435Z,14.43
2023-07-25T04:05:43.350Z,13.40
2023-07-25T04:08:10.848Z,14.18
2023-07-25T04:10:38.066Z,16.20
2023-07-25T04:13:05.757Z,12.80
2023-07-25T04:15:33.111Z,14.25
2023-07-25T04:18:00.571Z,14.52
2023-07-25T04:20:28.346Z,14.52
2023-07-25T04:22:58.111Z,14.38
2023-07-25T04:25:27.461Z,14.57
2023-07-25T04:27:54.910Z,13.52
2023-07-25T04:30:22.274Z,12.73
2023-07-25T04:32:50.070Z,25.10
2023-07-25T04:35:17.384Z,13.35
2023-07-25T04:37:45.345Z,14.95
2023-07-25T04:40:13.367Z,16.17
2023-07-25T04:42:41.315Z,12.95
2023-07-25T04:45:09.072Z,14.68
2023-07-25T04:47:36.820Z,12.57
2023-07-25T04:50:04.616Z,13.88
2023-07-25T04:52:32.146Z,11.70
2023-07-25T04:55:00.420Z,14.95
2023-07-25T04:57:28.056Z,12.50
2023-07-25T04:59:55.479Z,16.15
2023-07-25T05:02:24.061Z,13.25
2023-07-25T05:04:51.353Z,14.13
2023-07-25T05:07:19.029Z,14.82
2023-07-25T05:09:46.368Z,13.27
2023-07-25T05:12:14.944Z,11.85
2023-07-25T05:14:42.326Z,17.52
2023-07-25T05:17:09.810Z,13.40
2023-07-25T05:19:37.080Z,13.63
2023-07-25T05:22:08.316Z,12.90
2023-07-25T05:24:35.851Z,15.00
2023-07-25T05:27:03.412Z,12.40
2023-07-25T05:29:34.618Z,12.88
2023-07-25T05:32:02.218Z,12.27
2023-07-25T05:34:29.444Z,11.02
2023-07-25T05:36:57.067Z,14.07
2023-07-25T05:39:24.209Z,9.77
2023-07-25T05:41:51.834Z,11.05
2023-07-25T05:44:18.995Z,12.68
2023-07-25T05:46:46.914Z,10.20
2023-07-25T05:49:14.129Z,11.68
2023-07-25T05:51:41.638Z,14.57
2023-07-25T05:54:09.348Z,11.18
2023-07-25T05:56:36.838Z,13.52
2023-07-25T05:59:04.045Z,9.57
2023-07-25T06:01:32.717Z,11.18
2023-07-25T06:04:00.207Z,11.68
2023-07-25T06:06:28.565Z,9.77
2023-07-25T06:08:55.759Z,13.02
2023-07-25T06:11:24.938Z,9.20
2023-07-25T06:13:54.066Z,10.82
2023-07-25T06:16:21.732Z,11.95
2023-07-25T06:18:49.264Z,10.68
2023-07-25T06:21:16.855Z,8.73
2023-07-25T06:23:44.277Z,8.85
2023-07-25T06:26:13.238Z,9.98
2023-07-25T06:28:41.012Z,9.32
2023-07-25T06:31:09.007Z,9.55
2023-07-25T06:33:36.184Z,8.63
2023-07-25T06:36:04.274Z,8.50
2023-07-25T06:38:31.432Z,9.60
2023-07-25T06:40:59.256Z,8.80
2023-07-25T06:43:26.409Z,9.68
2023-07-25T06:45:54.792Z,7.18
2023-07-25T06:48:22.190Z,10.63
2023-07-25T06:50:49.915Z,8.70
2023-07-25T06:53:17.207Z,8.75
2023-07-25T06:55:45.798Z,7.15
2023-07-25T06:58:14.653Z,7.72
2023-07-25T07:00:42.593Z,6.93
2023-07-25T07:03:09.957Z,6.63
2023-07-25T07:05:37.975Z,6.32
2023-07-25T07:08:05.791Z,6.90
2023-07-25T07:10:35.045Z,6.03
2023-07-25T07:13:02.284Z,5.75
2023-07-25T07:15:29.713Z,5.97
2023-07-25T07:17:57.092Z,8.32
2023-07-25T07:20:24.554Z,9.27
2023-07-25T07:22:52.110Z,5.72
2023-07-25T07:25:19.546Z,5.55
2023-07-25T07:27:46.867Z,4.95
2023-07-25T07:30:14.439Z,5.32
2023-07-25T07:32:42.221Z,4.80
2023-07-25T07:35:09.827Z,5.45
2023-07-25T07:37:38.604Z,5.85
2023-07-25T07:40:07.035Z,5.35
2023-07-25T07:42:34.227Z,4.40
2023-07-25T07:45:01.730Z,4.53
2023-07-25T07:47:29.335Z,5.35
2023-07-25T07:49:56.947Z,6.60
2023-07-25T07:52:33.155Z,4.85
2023-07-25T07:55:12.141Z,4.53
2023-07-25T07:57:47.163Z,5.72
2023-07-25T08:00:16.842Z,4.88
2023-07-25T08:02:46.502Z,4.20
2023-07-25T08:05:18.085Z,5.35
2023-07-25T08:07:45.541Z,5.75
2023-07-25T08:10:13.171Z,5.82
2023-07-25T08:12:41.855Z,5.28
2023-07-25T08:15:09.740Z,6.10
2023-07-25T08:17:37.536Z,7.80
2023-07-25T08:20:05.740Z,4.38
2023-07-25T08:22:33.053Z,4.05
2023-07-25T08:25:00.933Z,5.80
2023-07-25T08:27:28.476Z,5.15
2023-07-25T08:29:56.541Z,5.43
2023-07-25T08:32:26.115Z,4.88
2023-07-25T08:34:53.666Z,5.53
2023-07-25T08:37:26.287Z,4.25
2023-07-25T08:39:53.806Z,3.85
2023-07-25T08:42:23.874Z,5.00
2023-07-25T08:44:53.505Z,5.13
2023-07-25T08:47:29.775Z,3.83
2023-07-25T08:49:59.187Z,9.30
2023-07-25T08:52:29.959Z,3.97
2023-07-25T08:54:58.061Z,4.53
2023-07-25T08:57:27.593Z,4.63
2023-07-25T08:59:55.863Z,4.63
2023-07-25T09:02:27.832Z,4.57
2023-07-25T09:04:55.751Z,4.88
2023-07-25T09:07:23.013Z,5.75
2023-07-25T09:12:43.818Z,3.80
2023-07-25T09:15:11.281Z,5.25
2023-07-25T09:17:38.602Z,4.22
2023-07-25T09:20:08.214Z,3.78
2023-07-25T09:22:35.648Z,4.10
2023-07-25T09:25:09.404Z,5.05
2023-07-25T09:27:36.946Z,4.28
2023-07-25T09:30:13.050Z,4.32
2023-07-25T09:32:45.390Z,4.35
2023-07-25T09:35:13.234Z,6.40
2023-07-25T09:37:40.515Z,3.10
2023-07-25T09:40:12.676Z,3.88
2023-07-25T09:42:43.731Z,4.70
2023-07-25T09:45:12.856Z,4.30
2023-07-25T09:47:40.209Z,4.57
2023-07-25T09:50:08.581Z,3.95
2023-07-25T09:52:43.487Z,3.90
2023-07-25T09:55:11.264Z,4.50
2023-07-25T09:57:40.364Z,3.30
2023-07-25T10:00:08.755Z,4.25
2023-07-25T10:02:37.511Z,4.38
2023-07-25T10:05:07.492Z,6.32
2023-07-25T10:07:35.743Z,3.60
2023-07-25T10:10:05.956Z,4.05
2023-07-25T10:12:33.328Z,3.88
2023-07-25T10:15:00.891Z,3.60
2023-07-25T10:17:28.358Z,4.15
2023-07-25T10:19:56.785Z,3.47
2023-07-25T10:22:38.808Z,3.45
2023-07-25T10:25:11.374Z,5.13
2023-07-25T10:27:38.914Z,5.57
2023-07-25T10:30:25.735Z,4.35
2023-07-25T10:32:59.454Z,4.72
2023-07-25T10:35:55.724Z,4.72
2023-07-25T10:38:39.019Z,3.72
2023-07-25T10:41:17.133Z,3.08
2023-07-25T10:43:48.719Z,4.30
2023-07-25T10:46:35.863Z,3.28
2023-07-25T10:49:14.742Z,3.95
2023-07-25T10:51:55.217Z,3.10
2023-07-25T10:54:25.861Z,3.17
2023-07-25T10:57:14.730Z,2.55
2023-07-25T11:00:01.897Z,3.35
2023-07-25T11:02:33.307Z,4.28
2023-07-25T11:05:16.036Z,5.35
2023-07-25T11:07:46.412Z,3.60
2023-07-25T11:10:39.971Z,5.13
2023-07-25T11:13:09.333Z,4.53
2023-07-25T11:15:47.316Z,7.13
2023-07-25T11:18:15.433Z,3.92
2023-07-25T11:20:42.769Z,5.10
2023-07-25T11:23:15.583Z,4.20
2023-07-25T11:25:52.837Z,3.65
2023-07-25T11:28:22.437Z,8.57
2023-07-25T11:30:49.836Z,8.40
2023-07-25T11:33:17.734Z,3.30
2023-07-25T11:35:45.484Z,3.40
2023-07-25T11:38:13.306Z,4.07
2023-07-25T11:40:42.225Z,4.07
2023-07-25T11:43:14.074Z,5.30
2023-07-25T11:45:41.382Z,4.68
2023-07-25T11:48:27.344Z,4.13
2023-07-25T11:50:55.457Z,4.07
2023-07-25T11:53:41.374Z,5.93
2023-07-25T11:56:10.165Z,5.80
2023-07-25T11:58:37.793Z,4.30
2023-07-25T12:01:09.959Z,4.10
2023-07-25T12:03:46.246Z,3.90
2023-07-25T12:06:13.978Z,5.55
2023-07-25T12:08:43.714Z,3.38
2023-07-25T12:11:14.461Z,5.38
2023-07-25T12:13:50.191Z,3.80
2023-07-25T12:16:38.515Z,4.38
2023-07-25T12:19:11.313Z,4.90
2023-07-25T12:21:42.892Z,3.92
2023-07-25T12:24:17.624Z,3.70
2023-07-25T12:26:50.572Z,5.17
2023-07-25T12:29:22.504Z,3.85
2023-07-25T12:31:50.219Z,3.97
2023-07-25T12:34:22.566Z,3.78
2023-07-25T12:36:51.616Z,4.32
2023-07-25T12:39:19.383Z,4.13
2023-07-25T12:41:47.629Z,4.88
2023-07-25T12:44:15.023Z,4.10
2023-07-25T12:46:42.708Z,3.80
2023-07-25T12:49:10.992Z,3.03
2023-07-25T12:51:38.548Z,5.07
2023-07-25T12:54:07.685Z,4.70
2023-07-25T12:56:35.649Z,4.45
2023-07-25T12:59:03.144Z,3.80
2023-07-25T13:01:31.192Z,4.13
2023-07-25T13:04:02.214Z,4.80
2023-07-25T13:06:29.976Z,5.47
2023-07-25T13:08:57.231Z,4.53
2023-07-25T13:11:24.992Z,5.53
2023-07-25T13:13:52.814Z,4.38
2023-07-25T13:16:20.450Z,4.18
2023-07-25T13:18:48.233Z,3.60
2023-07-25T13:21:15.909Z,6.68
2023-07-25T13:23:43.269Z,3.60
2023-07-25T13:26:11.493Z,4.28
2023-07-25T13:28:39.010Z,9.73
2023-07-25T13:31:06.648Z,14.57
2023-07-25T13:33:34.134Z,5.32
2023-07-25T13:36:02.587Z,4.07
2023-07-25T13:38:30.192Z,4.35
2023-07-25T13:40:57.746Z,2.95
2023-07-25T13:43:26.109Z,4.28
2023-07-25T13:45:53.727Z,3.72
2023-07-25T13:48:22.155Z,4.93
2023-07-25T13:50:54.352Z,4.40
2023-07-25T13:53:23.952Z,3.25
2023-07-25T13:55:52.342Z,4.88
2023-07-25T14:01:05.402Z,3.38
2023-07-25T14:03:32.708Z,5.25
2023-07-25T14:06:00.347Z,4.07
2023-07-25T14:08:27.611Z,5.47
2023-07-25T14:10:55.761Z,4.80
2023-07-25T14:13:23.861Z,4.15
2023-07-25T14:15:52.269Z,6.90
2023-07-25T14:18:19.712Z,4.70
2023-07-25T14:20:48.831Z,4.22
2023-07-25T14:23:16.176Z,4.97
2023-07-25T14:25:43.860Z,4.22
2023-07-25T14:28:11.181Z,4.88
2023-07-25T14:30:38.756Z,4.78
2023-07-25T14:33:08.618Z,2.78
2023-07-25T14:35:36.341Z,4.88
2023-07-25T14:38:05.702Z,3.60
2023-07-25T14:40:35.815Z,3.97
2023-07-25T14:43:03.072Z,5.43
2023-07-25T14:45:31.438Z,3.80
2023-07-25T14:47:59.677Z,4.97
2023-07-25T14:50:27.876Z,5.80
2023-07-25T14:52:55.165Z,4.13
2023-07-25T14:55:23.062Z,7.47
2023-07-25T14:57:50.345Z,4.72
2023-07-25T15:00:18.197Z,5.85
2023-07-25T15:02:45.714Z,4.20
2023-07-25T15:05:13.665Z,3.53
2023-07-25T15:07:40.972Z,4.03
2023-07-25T15:10:09.040Z,8.05
2023-07-25T15:12:36.542Z,4.20
2023-07-25T15:15:05.720Z,5.43
2023-07-25T15:17:33.143Z,4.05
2023-07-25T15:20:05.571Z,3.35
2023-07-25T15:22:33.220Z,5.13
2023-07-25T15:25:00.895Z,4.13
2023-07-25T15:27:29.446Z,3.78
2023-07-25T15:29:57.075Z,6.55
